Time;durP1;ratioP1;P1;durP2;ratioP2;P2;SDS_P1;SDS_P2;PMS_P1;PMS_P2;Temp;Humidity;BMP_temperature;BMP_pressure;BME280_temperature;BME280_humidity;BME280_pressure;Samples;Min_cycle;Max_cycle;Signal;HPM_P1;HPM_P2
2022/07/09 06:02:42;;;;;;;1.30;1.17;;;;;;;;;;6175631;23;20243;-86
2022/07/09 06:05:08;;;;;;;1.88;0.95;;;;;;;;;;6216870;23;20008;-88
2022/07/09 06:07:33;;;;;;;2.22;1.15;;;;;;;;;;6216839;23;20001;-88
2022/07/09 06:09:59;;;;;;;1.95;1.20;;;;;;;;;;6216784;23;20423;-86
2022/07/09 06:12:24;;;;;;;1.40;1.20;;;;;;;;;;6217134;23;20055;-88
2022/07/09 06:14:50;;;;;;;1.67;1.10;;;;;;;;;;6190363;23;20009;-87
2022/07/09 06:17:15;;;;;;;2.50;1.13;;;;;;;;;;6216969;23;20025;-87
2022/07/09 06:42:57;;;;;;;2.55;1.25;;;;;;;;;;6193319;23;20334;-83
2022/07/09 06:45:22;;;;;;;2.15;1.38;;;;;;;;;;6215824;23;20020;-84
2022/07/09 06:47:48;;;;;;;2.22;1.27;;;;;;;;;;6216340;23;20004;-84
2022/07/09 06:50:14;;;;;;;1.35;1.17;;;;;;;;;;6216317;23;20415;-84
2022/07/09 06:52:39;;;;;;;1.65;1.40;;;;;;;;;;6216337;23;20058;-84
2022/07/09 06:55:05;;;;;;;1.40;1.30;;;;;;;;;;6216584;23;20005;-82
2022/07/09 06:57:31;;;;;;;1.40;1.30;;;;;;;;;;6216294;23;20043;-85
2022/07/09 06:59:56;;;;;;;2.17;1.17;;;;;;;;;;6216457;23;20615;-85
2022/07/09 07:02:22;;;;;;;1.55;1.25;;;;;;;;;;6216317;23;20001;-84
2022/07/09 07:04:47;;;;;;;1.55;1.10;;;;;;;;;;6216553;23;20005;-84
2022/07/09 07:07:13;;;;;;;1.90;1.20;;;;;;;;;;6216105;23;20332;-87
2022/07/09 07:09:38;;;;;;;1.38;0.90;;;;;;;;;;6189422;23;20408;-87
2022/07/09 07:12:05;;;;;;;2.15;1.20;;;;;;;;;;6215551;23;20000;-85
2022/07/09 07:14:30;;;;;;;2.28;1.40;;;;;;;;;;6216024;23;20001;-84
2022/07/09 07:16:56;;;;;;;1.40;1.10;;;;;;;;;;6216373;23;20011;-87
2022/07/09 07:19:21;;;;;;;2.75;1.25;;;;;;;;;;6189488;23;20001;-84
2022/07/09 07:21:48;;;;;;;1.20;1.10;;;;;;;;;;6216158;23;20059;-87
2022/07/09 07:24:13;;;;;;;3.17;1.00;;;;;;;;;;6189521;23;20009;-85
2022/07/09 07:26:39;;;;;;;1.35;1.25;;;;;;;;;;6216064;23;20040;-86
2022/07/09 07:29:05;;;;;;;1.65;1.05;;;;;;;;;;6216082;23;20005;-82
2022/07/09 07:31:31;;;;;;;1.30;1.20;;;;;;;;;;6216007;23;20084;-83
2022/07/09 07:33:57;;;;;;;1.30;1.20;;;;;;;;;;6216353;23;20012;-85
2022/07/09 07:36:22;;;;;;;0.90;0.90;;;;;;;;;;6216010;23;20004;-87
2022/07/09 07:38:48;;;;;;;1.25;1.10;;;;;;;;;;6216064;23;20332;-85
2022/07/09 07:41:15;;;;;;;1.67;1.23;;;;;;;;;;6216048;23;20000;-87
2022/07/09 07:43:41;;;;;;;1.30;1.20;;;;;;;;;;6216187;23;20012;-86
2022/07/09 07:46:06;;;;;;;1.25;1.23;;;;;;;;;;6189258;23;20436;-86
2022/07/09 07:48:32;;;;;;;1.45;1.10;;;;;;;;;;6216101;23;20088;-87
2022/07/09 07:50:57;;;;;;;1.27;1.17;;;;;;;;;;6216062;23;20043;-87
2022/07/09 07:53:23;;;;;;;1.80;1.30;;;;;;;;;;6216171;23;20015;-87
2022/07/09 07:55:49;;;;;;;1.30;1.20;;;;;;;;;;6189390;23;20427;-87
2022/07/09 07:58:14;;;;;;;1.38;1.20;;;;;;;;;;6215995;23;20075;-87
2022/07/09 08:00:40;;;;;;;1.55;1.15;;;;;;;;;;6216203;23;20072;-86
2022/07/09 08:03:05;;;;;;;1.73;1.20;;;;;;;;;;6216241;23;20336;-86
2022/07/09 08:05:31;;;;;;;1.50;1.35;;;;;;;;;;6189182;23;20063;-87
2022/07/09 08:07:57;;;;;;;2.15;1.40;;;;;;;;;;6215852;23;20059;-87
2022/07/09 08:10:23;;;;;;;1.88;1.30;;;;;;;;;;6215841;23;20004;-86
2022/07/09 08:12:48;;;;;;;1.70;1.00;;;;;;;;;;6189300;23;20005;-87
2022/07/09 08:15:15;;;;;;;1.73;1.00;;;;;;;;;;6215684;23;20028;-87
2022/07/09 08:17:40;;;;;;;1.55;1.20;;;;;;;;;;6215983;23;20008;-87
2022/07/09 08:20:06;;;;;;;1.20;1.10;;;;;;;;;;6215813;23;20482;-85
2022/07/09 08:22:32;;;;;;;1.60;1.13;;;;;;;;;;6216789;23;20005;-86
2022/07/09 08:24:57;;;;;;;1.50;1.40;;;;;;;;;;6217968;23;20099;-85
2022/07/09 08:27:23;;;;;;;1.40;1.17;;;;;;;;;;6217931;23;20008;-87
2022/07/09 08:29:49;;;;;;;1.25;1.00;;;;;;;;;;6217997;23;20005;-87
2022/07/09 08:32:15;;;;;;;2.80;1.15;;;;;;;;;;6218237;23;20464;-88
2022/07/09 08:34:41;;;;;;;1.90;1.20;;;;;;;;;;6217936;23;20063;-87
2022/07/09 08:37:06;;;;;;;1.00;0.90;;;;;;;;;;6217965;23;20371;-83
2022/07/09 08:39:32;;;;;;;1.70;0.88;;;;;;;;;;6218137;23;20079;-87
2022/07/09 08:41:59;;;;;;;1.23;1.10;;;;;;;;;;6217593;23;20327;-87
2022/07/09 08:44:31;;;;;;;1.73;1.10;;;;;;;;;;6217752;23;20012;-87
2022/07/09 08:46:58;;;;;;;3.20;1.23;;;;;;;;;;6218057;23;20019;-87
2022/07/09 08:49:26;;;;;;;1.85;1.10;;;;;;;;;;6217842;23;20005;-87
2022/07/09 08:51:54;;;;;;;2.55;1.10;;;;;;;;;;6217760;23;20328;-86
2022/07/09 08:54:20;;;;;;;1.52;1.15;;;;;;;;;;6218250;23;20428;-86
2022/07/09 08:56:46;;;;;;;1.13;1.02;;;;;;;;;;6223067;23;20004;-86
2022/07/09 08:59:11;;;;;;;2.38;0.93;;;;;;;;;;6231385;23;20031;-86
2022/07/09 09:01:37;;;;;;;1.90;0.80;;;;;;;;;;6230612;23;20058;-86
2022/07/09 09:04:02;;;;;;;2.10;1.10;;;;;;;;;;6230498;23;20024;-87
2022/07/09 09:06:28;;;;;;;1.63;1.00;;;;;;;;;;6204356;23;20412;-85
2022/07/09 09:08:55;;;;;;;1.92;0.95;;;;;;;;;;6231171;23;19996;-85
2022/07/09 09:11:23;;;;;;;1.73;1.27;;;;;;;;;;6231404;23;20018;-85
2022/07/09 09:13:49;;;;;;;2.53;1.23;;;;;;;;;;6229586;23;20004;-84
2022/07/09 09:16:16;;;;;;;1.45;1.20;;;;;;;;;;6231515;23;20028;-86
2022/07/09 09:18:47;;;;;;;1.40;1.30;;;;;;;;;;6203907;23;20375;-85
2022/07/09 09:21:14;;;;;;;1.85;1.48;;;;;;;;;;6230444;23;20005;-85
2022/07/09 09:23:45;;;;;;;2.38;1.25;;;;;;;;;;6229754;23;20005;-85
2022/07/09 09:26:18;;;;;;;1.27;1.05;;;;;;;;;;6230191;23;19996;-85
2022/07/09 09:28:54;;;;;;;1.55;1.20;;;;;;;;;;6229125;23;20011;-86
2022/07/09 09:31:25;;;;;;;1.85;1.30;;;;;;;;;;6229296;23;20000;-86
2022/07/09 09:33:53;;;;;;;1.60;1.30;;;;;;;;;;6228612;23;20383;-87
2022/07/09 09:36:31;;;;;;;1.67;1.10;;;;;;;;;;6229810;23;20020;-86
2022/07/09 09:39:13;;;;;;;2.60;1.50;;;;;;;;;;6222056;23;20087;-84
2022/07/09 09:41:40;;;;;;;1.13;1.02;;;;;;;;;;6217842;23;20005;-84
2022/07/09 09:44:11;;;;;;;2.08;1.33;;;;;;;;;;6219979;23;20023;-86
2022/07/09 09:46:38;;;;;;;2.45;1.42;;;;;;;;;;6217711;23;20075;-82
2022/07/09 09:49:08;;;;;;;3.15;1.20;;;;;;;;;;6218357;23;20390;-85
2022/07/09 09:51:40;;;;;;;2.53;1.15;;;;;;;;;;6217873;23;20005;-84
2022/07/09 09:54:05;;;;;;;2.50;1.13;;;;;;;;;;6218479;23;20001;-88
2022/07/09 09:56:33;;;;;;;1.85;1.30;;;;;;;;;;6217945;23;20084;-85
2022/07/09 09:58:59;;;;;;;2.00;1.25;;;;;;;;;;6218145;23;20024;-86
2022/07/09 10:01:25;;;;;;;4.18;1.40;;;;;;;;;;6191533;23;20005;-85
2022/07/09 10:03:51;;;;;;;2.33;1.10;;;;;;;;;;6217939;23;20008;-90
2022/07/09 10:06:16;;;;;;;2.15;1.17;;;;;;;;;;6217702;23;20028;-87
2022/07/09 10:08:42;;;;;;;2.20;1.13;;;;;;;;;;6217551;23;20011;-86
2022/07/09 10:11:07;;;;;;;3.15;1.23;;;;;;;;;;6217609;23;20012;-84
2022/07/09 10:13:33;;;;;;;1.67;1.20;;;;;;;;;;6217748;23;20424;-86
2022/07/09 10:15:59;;;;;;;2.15;1.35;;;;;;;;;;6218242;23;20434;-89
2022/07/09 10:18:24;;;;;;;1.67;1.10;;;;;;;;;;6218101;23;20005;-88
2022/07/09 10:20:56;;;;;;;2.28;1.48;;;;;;;;;;6217579;23;20005;-85
2022/07/09 10:23:23;;;;;;;2.00;1.40;;;;;;;;;;6217783;23;20001;-93
2022/07/09 10:25:55;;;;;;;4.40;1.70;;;;;;;;;;6217757;23;20030;-89
2022/07/09 10:28:22;;;;;;;1.83;1.48;;;;;;;;;;6218116;23;20076;-89
2022/07/09 10:30:48;;;;;;;3.42;1.58;;;;;;;;;;6217292;23;20005;-88
2022/07/09 10:33:22;;;;;;;2.17;1.20;;;;;;;;;;6217366;23;20012;-86
2022/07/09 10:35:51;;;;;;;3.70;1.30;;;;;;;;;;6217319;23;20050;-91
2022/07/09 10:38:18;;;;;;;1.80;1.30;;;;;;;;;;6218406;23;20040;-91
2022/07/09 10:40:45;;;;;;;1.92;1.30;;;;;;;;;;6217871;23;20005;-90
2022/07/09 10:43:12;;;;;;;1.58;1.33;;;;;;;;;;6217798;23;20004;-87
2022/07/09 10:45:47;;;;;;;3.30;1.63;;;;;;;;;;6216932;23;20001;-84
2022/07/09 10:48:15;;;;;;;1.50;1.40;;;;;;;;;;6217123;23;20011;-84
2022/07/09 10:50:42;;;;;;;;;;;;;;;;;;6217939;23;20005;-94
2022/07/09 10:53:08;;;;;;;1.98;1.50;;;;;;;;;;6217220;23;19908;-85
2022/07/09 10:55:34;;;;;;;3.13;1.90;;;;;;;;;;6217444;23;20323;-85
2022/07/09 10:58:02;;;;;;;3.25;1.63;;;;;;;;;;6216763;23;20079;-85
2022/07/09 11:00:30;;;;;;;2.97;1.50;;;;;;;;;;6217135;23;20001;-84
2022/07/09 11:03:04;;;;;;;5.20;1.70;;;;;;;;;;6216810;23;20324;-86
2022/07/09 11:05:43;;;;;;;2.95;1.48;;;;;;;;;;6189840;23;20000;-85
2022/07/09 11:08:09;;;;;;;3.63;1.70;;;;;;;;;;6216604;23;20367;-84
2022/07/09 11:10:37;;;;;;;4.10;1.80;;;;;;;;;;6189951;23;20327;-85
2022/07/09 11:13:05;;;;;;;4.70;1.88;;;;;;;;;;6190083;23;20383;-85
2022/07/09 11:15:34;;;;;;;1.88;1.42;;;;;;;;;;6190254;23;20332;-83
2022/07/09 11:18:07;;;;;;;2.13;1.58;;;;;;;;;;6216074;23;20328;-85
2022/07/09 11:20:40;;;;;;;3.15;1.85;;;;;;;;;;6216263;23;20038;-81
2022/07/09 11:23:08;;;;;;;3.17;1.52;;;;;;;;;;6216373;23;20005;-88
2022/07/09 11:25:33;;;;;;;3.70;1.70;;;;;;;;;;6217046;23;20005;-84
2022/07/09 11:28:00;;;;;;;1.70;1.48;;;;;;;;;;6216577;23;20011;-92
2022/07/09 11:30:28;;;;;;;2.30;1.60;;;;;;;;;;6216787;23;20028;-89
2022/07/09 11:32:54;;;;;;;5.03;1.58;;;;;;;;;;6216684;23;20020;-87
2022/07/09 11:35:32;;;;;;;3.00;1.60;;;;;;;;;;6216521;23;20332;-86
2022/07/09 11:38:00;;;;;;;3.47;1.80;;;;;;;;;;6216277;23;20328;-87
2022/07/09 11:40:26;;;;;;;3.20;1.80;;;;;;;;;;6216497;23;20001;-86
2022/07/09 11:42:51;;;;;;;6.80;1.80;;;;;;;;;;6216202;23;20028;-87
2022/07/09 11:45:26;;;;;;;2.15;1.20;;;;;;;;;;6216080;23;20421;-88
2022/07/09 11:48:04;;;;;;;1.65;1.50;;;;;;;;;;6216226;23;20004;-87
2022/07/09 11:50:29;;;;;;;4.93;1.70;;;;;;;;;;6216330;23;20392;-84
2022/07/09 11:52:55;;;;;;;2.50;1.58;;;;;;;;;;6216353;23;20001;-86
2022/07/09 11:55:27;;;;;;;1.70;1.60;;;;;;;;;;6216221;23;20001;-86
2022/07/09 11:58:06;;;;;;;5.80;1.70;;;;;;;;;;6217321;23;20008;-81
2022/07/09 12:00:33;;;;;;;;;;;;;;;;;;6218792;23;20009;-87
2022/07/09 12:03:01;;;;;;;2.17;1.60;;;;;;;;;;6218158;23;19903;-86
2022/07/09 12:05:32;;;;;;;4.40;1.60;;;;;;;;;;6218682;23;20301;-83
2022/07/09 12:07:59;;;;;;;3.35;1.40;;;;;;;;;;6218450;23;20035;-88
2022/07/09 12:10:26;;;;;;;2.90;1.70;;;;;;;;;;6217821;23;20059;-88
2022/07/09 12:12:52;;;;;;;1.85;1.13;;;;;;;;;;6218439;23;19997;-87
2022/07/09 12:15:17;;;;;;;3.10;1.80;;;;;;;;;;6191552;23;20008;-90
2022/07/09 12:17:43;;;;;;;3.47;1.40;;;;;;;;;;6218036;23;20338;-86
2022/07/09 12:20:09;;;;;;;2.00;1.23;;;;;;;;;;6218203;23;20004;-83
2022/07/09 12:22:35;;;;;;;1.88;1.50;;;;;;;;;;6218117;23;20055;-87
2022/07/09 12:25:01;;;;;;;4.25;1.85;;;;;;;;;;6217957;23;20371;-88
2022/07/09 12:27:26;;;;;;;2.92;1.63;;;;;;;;;;6191649;23;20347;-90
2022/07/09 12:29:51;;;;;;;4.15;1.50;;;;;;;;;;6218871;23;20079;-84
2022/07/09 12:32:17;;;;;;;2.45;1.40;;;;;;;;;;6218367;23;20005;-90
2022/07/09 12:34:43;;;;;;;2.65;1.40;;;;;;;;;;6217653;23;20031;-84
2022/07/09 12:37:08;;;;;;;2.53;1.55;;;;;;;;;;6217840;23;20067;-83
2022/07/09 12:39:33;;;;;;;1.65;1.55;;;;;;;;;;6218034;23;20012;-81
2022/07/09 12:41:59;;;;;;;2.70;1.60;;;;;;;;;;6216755;23;20055;-84
2022/07/09 12:44:25;;;;;;;4.28;1.67;;;;;;;;;;6217157;23;20015;-84
2022/07/09 12:46:51;;;;;;;3.33;1.83;;;;;;;;;;6217414;23;20001;-83
2022/07/09 12:49:16;;;;;;;2.47;1.40;;;;;;;;;;6217795;23;20032;-81
2022/07/09 12:51:42;;;;;;;9.07;2.00;;;;;;;;;;6217649;23;20001;-84
2022/07/09 12:54:08;;;;;;;3.55;1.30;;;;;;;;;;6217565;23;20336;-87
2022/07/09 12:56:33;;;;;;;1.40;1.30;;;;;;;;;;6217326;23;20005;-80
2022/07/09 12:58:59;;;;;;;1.95;1.45;;;;;;;;;;6217649;23;20001;-81
2022/07/09 13:01:24;;;;;;;4.68;1.30;;;;;;;;;;6217457;23;20037;-81
2022/07/09 13:03:49;;;;;;;3.13;1.50;;;;;;;;;;6217345;23;20004;-86
2022/07/09 13:09:05;;;;;;;1.58;1.40;;;;;;;;;;6216834;23;20098;-84
2022/07/09 13:11:30;;;;;;;2.30;1.60;;;;;;;;;;6217048;23;20007;-88
2022/07/09 13:13:55;;;;;;;3.90;1.80;;;;;;;;;;6217593;23;20091;-85
2022/07/09 13:16:22;;;;;;;3.25;1.52;;;;;;;;;;6217286;23;20428;-88
2022/07/09 13:18:47;;;;;;;2.88;1.58;;;;;;;;;;6217176;23;20431;-89
2022/07/09 13:21:13;;;;;;;3.63;1.40;;;;;;;;;;6217058;23;20072;-83
2022/07/09 13:23:38;;;;;;;2.75;1.73;;;;;;;;;;6217252;23;20008;-85
2022/07/09 13:26:04;;;;;;;1.90;1.70;;;;;;;;;;6217515;23;20001;-81
2022/07/09 13:28:29;;;;;;;1.67;1.58;;;;;;;;;;6217035;23;20012;-81
2022/07/09 13:30:55;;;;;;;2.97;1.60;;;;;;;;;;6217054;23;20005;-80
2022/07/09 13:33:21;;;;;;;1.67;1.58;;;;;;;;;;6216878;23;20005;-81
2022/07/09 13:35:46;;;;;;;4.05;1.45;;;;;;;;;;6217147;23;20058;-81
2022/07/09 13:38:12;;;;;;;3.67;1.70;;;;;;;;;;6217237;23;20008;-81
2022/07/09 13:40:38;;;;;;;2.97;1.70;;;;;;;;;;6190119;23;20005;-81
2022/07/09 13:43:03;;;;;;;2.65;1.60;;;;;;;;;;6216550;23;20000;-80
2022/07/09 13:45:29;;;;;;;1.40;1.30;;;;;;;;;;6216983;23;20371;-80
2022/07/09 13:47:55;;;;;;;5.00;1.33;;;;;;;;;;6216762;23;20040;-80
2022/07/09 13:50:21;;;;;;;3.63;1.88;;;;;;;;;;6217039;23;20412;-83
2022/07/09 13:52:47;;;;;;;2.22;1.60;;;;;;;;;;6217001;23;20092;-83
2022/07/09 13:55:12;;;;;;;1.95;1.58;;;;;;;;;;6217224;23;20420;-83
2022/07/09 13:57:38;;;;;;;1.92;1.70;;;;;;;;;;6217102;23;20012;-82
2022/07/09 14:00:05;;;;;;;4.03;1.55;;;;;;;;;;6216600;23;20341;-79
2022/07/09 14:02:33;;;;;;;2.88;1.60;;;;;;;;;;6216768;23;20005;-88
2022/07/09 14:04:59;;;;;;;2.10;1.50;;;;;;;;;;6216664;23;20028;-88
2022/07/09 14:07:25;;;;;;;3.15;1.42;;;;;;;;;;6216868;23;19997;-80
2022/07/09 14:09:50;;;;;;;4.00;1.55;;;;;;;;;;6217059;23;20005;-82
2022/07/09 14:12:16;;;;;;;2.95;1.60;;;;;;;;;;6217044;23;20099;-87
2022/07/09 16:47:14;;;;;;;1.90;1.70;;;;;;;;;;6189744;23;20090;-86
2022/07/09 16:49:40;;;;;;;1.85;1.48;;;;;;;;;;6217853;23;20427;-84
2022/07/09 16:52:05;;;;;;;1.80;1.70;;;;;;;;;;6218583;23;20008;-85
2022/07/09 16:54:31;;;;;;;1.73;1.55;;;;;;;;;;6216197;23;20008;-86
2022/07/09 16:56:56;;;;;;;3.17;1.50;;;;;;;;;;6217529;23;20000;-85
2022/07/09 16:59:23;;;;;;;1.92;1.40;;;;;;;;;;6217822;23;19997;-85
2022/07/09 17:01:49;;;;;;;2.10;1.70;;;;;;;;;;6191089;23;20024;-85
2022/07/09 17:04:17;;;;;;;1.92;1.63;;;;;;;;;;6217562;23;20008;-86
2022/07/09 17:06:44;;;;;;;1.40;1.30;;;;;;;;;;6217985;23;20080;-86
2022/07/09 17:09:09;;;;;;;1.88;1.75;;;;;;;;;;6217688;23;20000;-86
2022/07/09 17:11:36;;;;;;;2.08;1.50;;;;;;;;;;6191098;23;20015;-86
2022/07/09 17:14:02;;;;;;;3.05;1.65;;;;;;;;;;6190971;23;20005;-85
2022/07/09 17:16:27;;;;;;;2.28;1.55;;;;;;;;;;6221024;23;20011;-84
2022/07/09 17:18:53;;;;;;;4.95;1.50;;;;;;;;;;6223427;23;20013;-84
2022/07/09 17:21:18;;;;;;;4.97;1.90;;;;;;;;;;6218050;23;20001;-88
2022/07/09 17:23:44;;;;;;;2.03;1.50;;;;;;;;;;6222757;23;20066;-87
2022/07/09 17:26:10;;;;;;;2.65;1.70;;;;;;;;;;6220667;23;20096;-86
2022/07/09 17:28:36;;;;;;;1.50;1.40;;;;;;;;;;6222000;23;20454;-86
2022/07/09 17:31:01;;;;;;;1.67;1.55;;;;;;;;;;6223216;23;20020;-86
2022/07/09 17:33:27;;;;;;;3.15;2.53;;;;;;;;;;6227633;23;20004;-89
2022/07/09 17:35:52;;;;;;;1.65;1.55;;;;;;;;;;6237568;23;20005;-85
2022/07/09 17:38:18;;;;;;;3.78;1.40;;;;;;;;;;6236393;23;20005;-86
2022/07/09 17:40:44;;;;;;;1.40;1.30;;;;;;;;;;6233916;23;20012;-85
2022/07/09 17:43:09;;;;;;;1.65;1.33;;;;;;;;;;6226563;23;20012;-94
2022/07/09 17:45:35;;;;;;;1.88;1.40;;;;;;;;;;6203690;23;20060;-90
2022/07/09 17:48:00;;;;;;;1.38;1.27;;;;;;;;;;6229687;23;20056;-86
2022/07/09 17:50:26;;;;;;;2.10;1.27;;;;;;;;;;6237588;23;20001;-87
2022/07/09 17:52:51;;;;;;;3.10;1.60;;;;;;;;;;6242702;23;19987;-86
2022/07/09 17:55:19;;;;;;;1.65;1.55;;;;;;;;;;6227068;23;20001;-85
2022/07/09 17:57:56;;;;;;;1.75;1.65;;;;;;;;;;6224610;23;20019;-85
2022/07/09 18:00:25;;;;;;;1.70;1.50;;;;;;;;;;6220073;23;20000;-85
2022/07/09 18:02:50;;;;;;;2.28;1.65;;;;;;;;;;6222475;23;20004;-88
2022/07/09 18:05:17;;;;;;;1.65;1.48;;;;;;;;;;6220301;23;20012;-82
2022/07/09 18:07:42;;;;;;;3.40;1.70;;;;;;;;;;6219598;23;20005;-88
2022/07/09 18:10:09;;;;;;;2.85;1.60;;;;;;;;;;6219772;23;20384;-84
2022/07/09 18:12:35;;;;;;;2.15;1.75;;;;;;;;;;6219614;23;20008;-83
2022/07/09 18:15:00;;;;;;;4.10;1.50;;;;;;;;;;6219577;23;20076;-83
2022/07/09 18:17:26;;;;;;;6.50;4.30;;;;;;;;;;6219587;23;20440;-82
2022/07/09 18:19:51;;;;;;;3.83;2.55;;;;;;;;;;6219860;23;20004;-83
2022/07/09 18:22:17;;;;;;;3.28;1.80;;;;;;;;;;6219751;23;20443;-83
2022/07/09 18:24:42;;;;;;;1.60;1.50;;;;;;;;;;6221113;23;20007;-83
2022/07/09 18:27:08;;;;;;;1.92;1.70;;;;;;;;;;6221202;23;20009;-83
2022/07/09 18:29:33;;;;;;;2.70;2.30;;;;;;;;;;6226089;23;20005;-85
2022/07/09 18:31:59;;;;;;;2.47;2.22;;;;;;;;;;6199223;23;20016;-84
2022/07/09 18:34:24;;;;;;;2.50;2.30;;;;;;;;;;6228463;23;20004;-84
2022/07/09 18:36:50;;;;;;;2.42;1.98;;;;;;;;;;6228362;23;20432;-85
2022/07/09 18:39:15;;;;;;;3.03;1.80;;;;;;;;;;6231659;23;20431;-85
2022/07/09 18:41:47;;;;;;;2.08;1.80;;;;;;;;;;6230522;23;20032;-83
2022/07/09 18:44:15;;;;;;;3.15;1.88;;;;;;;;;;6199647;23;20072;-83
2022/07/09 18:46:41;;;;;;;2.35;1.67;;;;;;;;;;6225856;23;20009;-83
2022/07/09 18:49:07;;;;;;;1.52;1.42;;;;;;;;;;6225889;23;20020;-82
2022/07/09 18:51:32;;;;;;;2.00;1.70;;;;;;;;;;6226752;23;20482;-85
2022/07/09 18:53:58;;;;;;;1.67;1.50;;;;;;;;;;6231396;23;20027;-85
2022/07/09 18:56:23;;;;;;;3.03;1.58;;;;;;;;;;6229980;23;20471;-85
2022/07/09 18:58:49;;;;;;;2.10;1.42;;;;;;;;;;6235011;23;20013;-86
2022/07/09 19:01:15;;;;;;;2.15;1.83;;;;;;;;;;6232526;23;20004;-85
2022/07/09 19:03:40;;;;;;;1.70;1.60;;;;;;;;;;6230210;23;20004;-87
2022/07/09 19:06:06;;;;;;;1.60;1.50;;;;;;;;;;6229503;23;19997;-86
2022/07/09 19:08:31;;;;;;;2.95;1.60;;;;;;;;;;6223235;23;20001;-84
2022/07/09 19:10:57;;;;;;;1.60;1.50;;;;;;;;;;6228614;23;20061;-84
2022/07/09 19:13:22;;;;;;;1.75;1.65;;;;;;;;;;6229315;23;20008;-85
2022/07/09 19:15:48;;;;;;;2.67;1.50;;;;;;;;;;6221466;23;20331;-84
2022/07/09 19:18:13;;;;;;;2.47;1.90;;;;;;;;;;6228566;23;20009;-86
2022/07/09 19:20:39;;;;;;;3.05;1.95;;;;;;;;;;6202057;23;20039;-85
2022/07/09 19:23:04;;;;;;;1.70;1.60;;;;;;;;;;6220265;23;20005;-85
2022/07/09 19:25:29;;;;;;;1.75;1.65;;;;;;;;;;6221678;23;20066;-85
2022/07/09 19:27:57;;;;;;;1.55;1.40;;;;;;;;;;6223935;23;20015;-85
2022/07/09 19:33:58;;;;;;;1.63;1.52;;;;;;;;;;6222261;23;20035;-86
2022/07/09 19:35:52;;;;;;;1.50;1.40;;;;;;;;;;6219965;23;20016;-86
2022/07/09 19:38:17;;;;;;;3.75;1.60;;;;;;;;;;6218100;23;20424;-86
2022/07/09 19:40:43;;;;;;;2.40;1.60;;;;;;;;;;6218110;23;20005;-85
2022/07/09 19:43:08;;;;;;;2.20;1.67;;;;;;;;;;6219203;23;20008;-85
2022/07/09 19:45:34;;;;;;;2.72;1.60;;;;;;;;;;6217456;23;20413;-85
2022/07/09 19:47:59;;;;;;;2.50;1.70;;;;;;;;;;6216948;23;20009;-85
2022/07/09 19:50:25;;;;;;;1.95;1.48;;;;;;;;;;6216907;23;20062;-85
2022/07/09 19:52:50;;;;;;;2.25;1.90;;;;;;;;;;6216994;23;20011;-86
2022/07/09 19:55:15;;;;;;;3.47;1.52;;;;;;;;;;6217398;23;20012;-86
2022/07/09 19:57:41;;;;;;;1.50;1.40;;;;;;;;;;6216927;23;20412;-85
2022/07/09 20:00:08;;;;;;;2.45;1.60;;;;;;;;;;6217024;23;20000;-85
2022/07/09 20:02:33;;;;;;;1.80;1.70;;;;;;;;;;6217282;23;20005;-84
2022/07/09 20:04:59;;;;;;;2.83;1.95;;;;;;;;;;6216783;23;20525;-85
2022/07/09 20:07:25;;;;;;;2.38;2.17;;;;;;;;;;6217406;23;20011;-85
2022/07/09 20:09:51;;;;;;;2.80;1.98;;;;;;;;;;6217155;23;20001;-85
2022/07/09 20:12:16;;;;;;;2.97;2.10;;;;;;;;;;6216848;23;20056;-85
2022/07/09 20:14:43;;;;;;;1.92;1.77;;;;;;;;;;6216287;23;20055;-85
2022/07/09 20:17:09;;;;;;;2.13;1.70;;;;;;;;;;6189593;23;20015;-85
2022/07/09 20:19:34;;;;;;;1.85;1.42;;;;;;;;;;6218006;23;20058;-85
2022/07/09 20:22:00;;;;;;;1.70;1.60;;;;;;;;;;6218276;23;20009;-85
2022/07/09 20:24:25;;;;;;;2.97;1.65;;;;;;;;;;6218129;23;20090;-85
2022/07/09 20:26:51;;;;;;;2.67;1.55;;;;;;;;;;6218774;23;20328;-85
2022/07/09 20:29:16;;;;;;;2.10;1.77;;;;;;;;;;6218198;23;20008;-85
2022/07/09 20:31:41;;;;;;;2.40;1.50;;;;;;;;;;6191807;23;20004;-85
2022/07/09 20:34:07;;;;;;;3.03;1.90;;;;;;;;;;6191590;23;20067;-86
2022/07/09 20:36:32;;;;;;;6.57;2.00;;;;;;;;;;6217958;23;20000;-85
2022/07/09 20:38:58;;;;;;;2.60;1.40;;;;;;;;;;6217922;23;20420;-85
2022/07/09 20:41:23;;;;;;;1.83;1.73;;;;;;;;;;6218344;23;20005;-82
2022/07/09 20:43:49;;;;;;;2.88;1.80;;;;;;;;;;6217971;23;20035;-82
2022/07/09 20:46:15;;;;;;;2.75;2.22;;;;;;;;;;6218094;23;20375;-82
2022/07/09 20:48:40;;;;;;;3.58;2.15;;;;;;;;;;6218076;23;20043;-83
2022/07/09 20:51:06;;;;;;;2.42;1.92;;;;;;;;;;6217925;23;20004;-83
2022/07/09 20:53:31;;;;;;;2.20;1.85;;;;;;;;;;6217960;23;20011;-83
2022/07/09 20:55:58;;;;;;;1.90;1.80;;;;;;;;;;6217719;23;20091;-83
2022/07/09 20:58:23;;;;;;;1.92;1.63;;;;;;;;;;6191082;23;20013;-83
2022/07/09 21:00:49;;;;;;;3.42;1.70;;;;;;;;;;6217763;23;20076;-83
2022/07/09 21:03:14;;;;;;;3.13;1.80;;;;;;;;;;6191099;23;20420;-83
2022/07/09 21:05:40;;;;;;;2.47;1.80;;;;;;;;;;6190866;23;20012;-83
2022/07/09 21:08:05;;;;;;;2.42;1.70;;;;;;;;;;6217637;23;20075;-83
2022/07/09 21:10:31;;;;;;;1.70;1.60;;;;;;;;;;6217356;23;20001;-82
2022/07/09 21:12:57;;;;;;;1.70;1.60;;;;;;;;;;6217501;23;20383;-83
2022/07/09 21:15:22;;;;;;;2.85;1.75;;;;;;;;;;6190810;23;20004;-83
2022/07/09 21:20:31;;;;;;;2.28;1.50;;;;;;;;;;6217349;23;20043;-82
2022/07/09 21:22:57;;;;;;;2.22;1.33;;;;;;;;;;6217815;23;20000;-83
2022/07/09 21:25:24;;;;;;;1.92;1.70;;;;;;;;;;6217551;23;20012;-83
2022/07/09 21:27:51;;;;;;;2.83;1.33;;;;;;;;;;6217397;23;20001;-83
2022/07/09 21:30:17;;;;;;;1.60;1.50;;;;;;;;;;6217275;23;20036;-83
2022/07/09 21:32:44;;;;;;;1.70;1.60;;;;;;;;;;6217537;23;20420;-82
2022/07/09 21:35:09;;;;;;;1.83;1.70;;;;;;;;;;6217653;23;20004;-83
2022/07/09 21:37:35;;;;;;;2.75;1.40;;;;;;;;;;6217662;23;20363;-85
2022/07/09 21:40:01;;;;;;;1.75;1.65;;;;;;;;;;6217659;23;20000;-85
2022/07/09 21:42:26;;;;;;;3.08;2.30;;;;;;;;;;6217911;23;20000;-84
2022/07/09 21:44:52;;;;;;;2.67;2.47;;;;;;;;;;6217766;23;20001;-85
2022/07/09 21:47:17;;;;;;;2.95;2.10;;;;;;;;;;6191073;23;20008;-87
